Time;durP1;ratioP1;P1;durP2;ratioP2;P2;SDS_P1;SDS_P2;PMS_P1;PMS_P2;Temp;Humidity;BMP_temperature;BMP_pressure;BME280_temperature;BME280_humidity;BME280_pressure;Samples;Min_cycle;Max_cycle;Signal;HPM_P1;HPM_P2
2023/06/03 00:00:16;;;;;;;;;15.00;15.00;;;;;;;;5055088;28;9571;-85
2023/06/03 00:02:47;;;;;;;;;15.00;13.50;;;;;;;;5054696;28;9602;-85
2023/06/03 00:05:19;;;;;;;;;17.75;12.50;;;;;;;;5054563;28;9764;-85
2023/06/03 00:07:46;;;;;;;;;13.75;12.75;;;;;;;;5043158;28;9468;-86
2023/06/03 00:10:14;;;;;;;;;14.00;14.00;;;;;;;;5057310;28;9511;-85
2023/06/03 00:12:42;;;;;;;;;12.00;10.75;;;;;;;;5055498;28;9677;-85
2023/06/03 00:15:09;;;;;;;;;14.75;14.75;;;;;;;;5055352;28;9654;-85
2023/06/03 00:17:37;;;;;;;;;17.50;14.75;;;;;;;;5054518;28;9547;-85
2023/06/03 00:20:09;;;;;;;;;16.25;14.75;;;;;;;;5058551;28;9513;-85
2023/06/03 00:22:37;;;;;;;;;17.50;17.50;;;;;;;;5052658;28;9470;-84
2023/06/03 00:25:07;;;;;;;;;17.00;15.00;;;;;;;;5057949;28;9598;-85
2023/06/03 00:27:34;;;;;;;;;17.00;14.25;;;;;;;;5056191;28;9753;-85
2023/06/03 00:30:02;;;;;;;;;17.00;15.50;;;;;;;;5051864;28;9620;-84
2023/06/03 00:32:29;;;;;;;;;15.50;12.75;;;;;;;;5054356;28;9726;-85
2023/06/03 00:34:57;;;;;;;;;16.00;14.25;;;;;;;;5056932;28;9630;-85
2023/06/03 00:37:27;;;;;;;;;18.75;17.75;;;;;;;;5053348;28;9590;-84
2023/06/03 00:39:54;;;;;;;;;17.00;16.25;;;;;;;;5047354;28;9636;-85
2023/06/03 00:42:21;;;;;;;;;15.75;12.50;;;;;;;;5056668;28;9733;-84
2023/06/03 00:44:48;;;;;;;;;15.50;13.75;;;;;;;;5067245;28;9624;-83
2023/06/03 00:47:20;;;;;;;;;19.50;17.50;;;;;;;;5053998;28;9732;-85
2023/06/03 00:49:47;;;;;;;;;17.50;17.50;;;;;;;;5052799;28;9862;-85
2023/06/03 00:52:15;;;;;;;;;24.25;19.50;;;;;;;;5039681;28;9832;-87
2023/06/03 00:54:44;;;;;;;;;17.25;16.75;;;;;;;;5049419;28;9784;-86
2023/06/03 00:57:12;;;;;;;;;17.00;17.00;;;;;;;;5070908;28;9605;-86
2023/06/03 00:59:39;;;;;;;;;15.00;15.00;;;;;;;;5055113;28;9945;-86
2023/06/03 01:02:07;;;;;;;;;18.00;17.00;;;;;;;;5030156;28;9623;-85
2023/06/03 01:04:34;;;;;;;;;18.75;17.00;;;;;;;;5051849;28;9690;-87
2023/06/03 01:07:14;;;;;;;;;15.00;14.25;;;;;;;;5057040;28;9674;-87
2023/06/03 01:09:55;;;;;;;;;21.00;19.00;;;;;;;;5052316;28;9780;-88
2023/06/03 01:12:29;;;;;;;;;17.50;15.25;;;;;;;;5053314;28;10399;-87
2023/06/03 01:14:59;;;;;;;;;17.25;15.25;;;;;;;;5055155;28;9685;-87
2023/06/03 01:17:31;;;;;;;;;18.25;17.25;;;;;;;;5051874;28;9850;-87
2023/06/03 01:20:01;;;;;;;;;20.00;20.00;;;;;;;;5051624;28;9977;-87
2023/06/03 01:22:28;;;;;;;;;21.00;21.00;;;;;;;;5052131;28;9858;-87
2023/06/03 01:25:09;;;;;;;;;21.00;19.00;;;;;;;;5034069;28;9921;-87
2023/06/03 01:27:37;;;;;;;;;20.75;17.75;;;;;;;;5051545;28;9858;-86
2023/06/03 01:30:07;;;;;;;;;20.50;19.00;;;;;;;;5053686;28;9876;-87
2023/06/03 01:32:34;;;;;;;;;21.75;18.75;;;;;;;;5051149;28;9896;-86
2023/06/03 01:35:02;;;;;;;;;21.50;20.75;;;;;;;;5043279;28;9923;-86
2023/06/03 01:37:30;;;;;;;;;16.75;16.25;;;;;;;;5054103;28;9865;-86
2023/06/03 01:40:01;;;;;;;;;20.50;14.00;;;;;;;;5051636;28;9969;-87
2023/06/03 01:42:30;;;;;;;;;17.75;16.00;;;;;;;;5050718;28;9786;-86
2023/06/03 01:44:58;;;;;;;;;20.75;19.75;;;;;;;;5052084;28;9975;-86
2023/06/03 01:47:27;;;;;;;;;18.75;18.75;;;;;;;;5057451;28;9846;-86
2023/06/03 01:49:55;;;;;;;;;23.50;19.50;;;;;;;;5045320;28;9914;-86
2023/06/03 01:52:22;;;;;;;;;17.75;13.25;;;;;;;;5051325;28;9877;-87
2023/06/03 01:54:49;;;;;;;;;14.75;14.25;;;;;;;;5052145;28;9871;-86
2023/06/03 01:57:17;;;;;;;;;13.00;13.00;;;;;;;;5064903;28;9861;-86
2023/06/03 01:59:45;;;;;;;;;20.25;18.25;;;;;;;;5050596;28;9967;-85
2023/06/03 02:02:13;;;;;;;;;26.50;22.75;;;;;;;;5050647;28;9860;-86
2023/06/03 02:04:44;;;;;;;;;18.25;18.25;;;;;;;;5040848;28;9982;-86
2023/06/03 02:07:12;;;;;;;;;21.00;21.00;;;;;;;;5051359;28;9907;-86
2023/06/03 02:09:39;;;;;;;;;21.00;21.00;;;;;;;;5051469;28;9849;-85
2023/06/03 02:12:10;;;;;;;;;17.75;17.75;;;;;;;;5049816;28;9788;-87
2023/06/03 02:14:38;;;;;;;;;20.00;17.50;;;;;;;;5050828;28;9906;-88
2023/06/03 02:17:07;;;;;;;;;33.25;30.00;;;;;;;;5050909;28;10016;-85
2023/06/03 02:19:34;;;;;;;;;19.50;18.50;;;;;;;;5049943;28;10365;-86
2023/06/03 02:22:02;;;;;;;;;23.25;20.25;;;;;;;;5051145;28;9956;-84
2023/06/03 02:24:31;;;;;;;;;21.00;20.00;;;;;;;;5051996;28;10133;-85
2023/06/03 02:27:02;;;;;;;;;21.50;19.75;;;;;;;;5053880;28;10103;-85
2023/06/03 02:29:32;;;;;;;;;21.25;20.75;;;;;;;;5052636;28;9928;-84
2023/06/03 02:32:00;;;;;;;;;16.00;16.00;;;;;;;;5054927;28;9955;-87
2023/06/03 02:34:29;;;;;;;;;25.75;23.50;;;;;;;;5059115;28;9874;-87
2023/06/03 02:36:56;;;;;;;;;20.25;20.25;;;;;;;;5050565;28;10060;-88
2023/06/03 02:39:23;;;;;;;;;19.50;17.00;;;;;;;;5063653;28;9959;-87
2023/06/03 02:41:51;;;;;;;;;17.25;15.50;;;;;;;;5053949;28;9983;-87
2023/06/03 02:44:18;;;;;;;;;20.50;19.75;;;;;;;;5050322;28;9918;-87
2023/06/03 02:46:46;;;;;;;;;27.25;26.25;;;;;;;;5049136;28;10011;-87
2023/06/03 02:49:15;;;;;;;;;22.50;18.50;;;;;;;;5049973;28;11015;-87
2023/06/03 02:51:44;;;;;;;;;21.50;21.50;;;;;;;;5050410;28;10197;-88
2023/06/03 02:54:11;;;;;;;;;24.25;22.75;;;;;;;;5042500;28;10037;-87
2023/06/03 02:56:39;;;;;;;;;21.25;19.25;;;;;;;;5053512;28;10913;-86
2023/06/03 02:59:09;;;;;;;;;19.25;19.25;;;;;;;;5040533;28;10019;-87
2023/06/03 03:01:37;;;;;;;;;21.75;20.25;;;;;;;;5048946;28;10102;-87
2023/06/03 03:04:04;;;;;;;;;18.25;17.75;;;;;;;;5050643;28;10048;-87
2023/06/03 03:06:32;;;;;;;;;21.00;19.50;;;;;;;;5049171;28;10199;-87
2023/06/03 03:09:00;;;;;;;;;26.25;19.75;;;;;;;;5049330;28;10191;-87
2023/06/03 03:11:28;;;;;;;;;15.75;15.75;;;;;;;;5049661;28;10163;-87
2023/06/03 03:13:55;;;;;;;;;25.25;24.25;;;;;;;;5067109;28;10138;-87
2023/06/03 03:16:23;;;;;;;;;21.50;21.25;;;;;;;;5064634;28;10214;-87
2023/06/03 03:18:51;;;;;;;;;21.25;20.00;;;;;;;;5067076;28;10238;-86
2023/06/03 03:21:19;;;;;;;;;22.00;22.00;;;;;;;;5058879;28;10206;-86
2023/06/03 03:23:46;;;;;;;;;21.50;20.75;;;;;;;;5049980;28;10378;-86
2023/06/03 03:26:15;;;;;;;;;24.25;20.00;;;;;;;;5051276;28;10262;-88
2023/06/03 03:28:42;;;;;;;;;23.00;20.00;;;;;;;;5040253;28;10039;-86
2023/06/03 03:31:11;;;;;;;;;15.50;14.00;;;;;;;;5042522;28;10115;-85
2023/06/03 03:33:38;;;;;;;;;21.25;18.00;;;;;;;;5051385;28;10134;-86
2023/06/03 03:36:13;;;;;;;;;23.25;21.50;;;;;;;;5050952;28;10097;-86
2023/06/03 03:38:40;;;;;;;;;23.50;22.50;;;;;;;;5049817;28;10281;-86
2023/06/03 03:41:07;;;;;;;;;20.75;18.00;;;;;;;;5032326;28;10288;-86
2023/06/03 03:43:37;;;;;;;;;20.00;19.50;;;;;;;;5048882;28;10424;-86
2023/06/03 03:46:05;;;;;;;;;22.75;22.75;;;;;;;;5049442;28;10247;-86
2023/06/03 03:48:32;;;;;;;;;25.75;23.25;;;;;;;;5047995;28;10163;-86
2023/06/03 03:50:59;;;;;;;;;29.25;26.50;;;;;;;;5049815;28;10193;-86
2023/06/03 03:53:32;;;;;;;;;21.75;21.75;;;;;;;;5048678;28;10167;-86
2023/06/03 03:55:59;;;;;;;;;26.25;23.25;;;;;;;;5049248;28;10187;-86
2023/06/03 03:58:36;;;;;;;;;20.25;19.25;;;;;;;;5044342;28;11104;-86
2023/06/03 04:01:12;;;;;;;;;26.25;22.50;;;;;;;;5042948;28;10093;-86
2023/06/03 04:03:41;;;;;;;;;23.25;21.25;;;;;;;;5040011;28;10199;-86
2023/06/03 04:06:09;;;;;;;;;20.50;18.00;;;;;;;;5053653;28;10210;-85
2023/06/03 04:08:43;;;;;;;;;26.25;25.00;;;;;;;;5052567;28;10089;-84
2023/06/03 04:11:17;;;;;;;;;23.00;22.25;;;;;;;;5052806;28;10324;-84
2023/06/03 04:13:44;;;;;;;;;21.25;20.75;;;;;;;;5052500;28;10901;-85
2023/06/03 04:16:19;;;;;;;;;24.50;23.00;;;;;;;;5038890;28;9963;-86
2023/06/03 04:18:46;;;;;;;;;27.00;25.00;;;;;;;;5059114;28;10148;-85
2023/06/03 04:21:15;;;;;;;;;26.00;23.25;;;;;;;;5052749;28;10186;-84
2023/06/03 04:23:43;;;;;;;;;24.00;23.25;;;;;;;;5051769;28;10208;-86
2023/06/03 04:26:11;;;;;;;;;21.50;19.75;;;;;;;;5057845;28;10116;-86
2023/06/03 04:28:41;;;;;;;;;18.25;17.75;;;;;;;;5063615;28;10097;-85
2023/06/03 04:31:08;;;;;;;;;26.00;24.00;;;;;;;;5045037;28;10029;-86
2023/06/03 04:33:39;;;;;;;;;17.75;17.75;;;;;;;;5051537;28;10210;-86
2023/06/03 04:36:06;;;;;;;;;20.75;20.25;;;;;;;;5060081;28;10177;-86
2023/06/03 04:38:34;;;;;;;;;29.25;25.50;;;;;;;;5067417;28;10119;-85
2023/06/03 04:41:02;;;;;;;;;28.75;23.00;;;;;;;;5060240;28;10128;-86
2023/06/03 04:43:30;;;;;;;;;39.00;28.75;;;;;;;;5063406;28;10177;-86
2023/06/03 04:45:57;;;;;;;;;27.50;26.00;;;;;;;;5060612;28;10304;-87
2023/06/03 04:48:25;;;;;;;;;24.75;22.25;;;;;;;;5056082;28;10092;-86
2023/06/03 04:51:01;;;;;;;;;20.25;20.25;;;;;;;;5058527;28;10005;-87
2023/06/03 04:53:34;;;;;;;;;20.50;19.00;;;;;;;;5051197;28;10032;-87
2023/06/03 04:56:06;;;;;;;;;20.00;18.50;;;;;;;;5051489;28;9939;-87
2023/06/03 04:58:33;;;;;;;;;25.25;24.25;;;;;;;;5050347;28;9918;-86
2023/06/03 05:01:00;;;;;;;;;21.75;18.50;;;;;;;;5051179;28;9961;-87
2023/06/03 05:03:29;;;;;;;;;22.75;22.75;;;;;;;;5051198;28;10030;-86
2023/06/03 05:06:01;;;;;;;;;22.75;22.00;;;;;;;;5051131;28;10215;-87
2023/06/03 05:08:28;;;;;;;;;21.25;19.75;;;;;;;;5040178;28;9969;-87
2023/06/03 05:10:55;;;;;;;;;21.25;18.75;;;;;;;;5053329;28;9953;-87
2023/06/03 05:13:23;;;;;;;;;21.00;19.00;;;;;;;;5055104;28;10023;-86
2023/06/03 05:15:52;;;;;;;;;19.00;16.00;;;;;;;;5052252;28;9940;-85
2023/06/03 05:18:21;;;;;;;;;23.00;20.50;;;;;;;;5051628;28;9988;-87
2023/06/03 05:20:48;;;;;;;;;21.50;20.00;;;;;;;;5050903;28;9940;-85
2023/06/03 05:23:17;;;;;;;;;21.00;18.75;;;;;;;;5051340;28;9981;-85
2023/06/03 05:25:47;;;;;;;;;25.75;23.75;;;;;;;;5053409;28;9999;-85
2023/06/03 05:28:15;;;;;;;;;17.00;17.00;;;;;;;;5057040;28;9935;-83
2023/06/03 05:30:42;;;;;;;;;23.25;21.75;;;;;;;;5048966;28;9929;-85
2023/06/03 05:33:09;;;;;;;;;24.25;20.00;;;;;;;;5051183;28;9818;-86
2023/06/03 05:35:37;;;;;;;;;16.25;16.25;;;;;;;;5052470;28;9878;-84
2023/06/03 05:38:07;;;;;;;;;21.00;20.00;;;;;;;;5052568;28;9850;-90
2023/06/03 05:40:35;;;;;;;;;23.50;21.25;;;;;;;;5052302;28;9617;-90
2023/06/03 05:43:03;;;;;;;;;23.00;20.50;;;;;;;;5037640;28;10460;-87
2023/06/03 05:45:30;;;;;;;;;19.75;18.00;;;;;;;;5052402;28;9667;-82
2023/06/03 05:48:00;;;;;;;;;19.50;16.25;;;;;;;;5051274;28;10405;-82
2023/06/03 05:50:28;;;;;;;;;24.00;18.25;;;;;;;;5053102;28;9949;-82
2023/06/03 05:52:55;;;;;;;;;23.25;21.00;;;;;;;;5060027;28;9871;-84
2023/06/03 05:55:23;;;;;;;;;19.25;19.25;;;;;;;;5052148;28;9772;-81
2023/06/03 05:57:54;;;;;;;;;19.75;18.50;;;;;;;;5052158;28;9694;-82
2023/06/03 06:00:24;;;;;;;;;17.50;14.50;;;;;;;;5056402;28;9811;-82
2023/06/03 06:02:51;;;;;;;;;21.25;16.75;;;;;;;;5056274;28;9744;-82
2023/06/03 06:05:18;;;;;;;;;20.75;19.00;;;;;;;;5054881;28;9609;-82
2023/06/03 06:07:45;;;;;;;;;18.00;18.00;;;;;;;;5053688;28;9558;-86
2023/06/03 06:10:13;;;;;;;;;17.75;16.25;;;;;;;;5048697;28;9463;-79
2023/06/03 06:12:40;;;;;;;;;17.75;17.75;;;;;;;;5048703;28;9579;-82
2023/06/03 06:15:10;;;;;;;;;15.25;15.25;;;;;;;;5065354;28;9432;-81
2023/06/03 06:17:38;;;;;;;;;15.50;15.50;;;;;;;;5062995;28;9597;-80
2023/06/03 06:20:06;;;;;;;;;16.33;15.00;;;;;;;;5065846;28;9398;-81
2023/06/03 06:22:34;;;;;;;;;12.67;12.67;;;;;;;;5061510;28;9412;-83
2023/06/03 06:25:01;;;;;;;;;17.00;17.00;;;;;;;;5065593;28;9240;-81
2023/06/03 06:27:32;;;;;;;;;19.00;19.00;;;;;;;;5059128;28;9085;-80
2023/06/03 06:30:00;;;;;;;;;14.33;14.33;;;;;;;;5058367;28;9154;-77
2023/06/03 06:32:28;;;;;;;;;16.33;15.00;;;;;;;;5058878;28;9070;-80
2023/06/03 06:34:56;;;;;;;;;19.67;18.00;;;;;;;;5064482;28;9000;-82
2023/06/03 06:37:23;;;;;;;;;19.67;18.00;;;;;;;;5061670;28;9172;-78
2023/06/03 06:39:51;;;;;;;;;21.00;19.67;;;;;;;;5065309;28;9133;-82
2023/06/03 06:42:37;;;;;;;;;16.67;16.67;;;;;;;;5062386;28;9016;-79
2023/06/03 06:45:10;;;;;;;;;14.75;14.75;;;;;;;;5063317;28;9040;-80
2023/06/03 06:47:39;;;;;;;;;15.25;15.25;;;;;;;;5064889;28;8853;-81
2023/06/03 06:50:09;;;;;;;;;17.25;15.75;;;;;;;;5060989;28;8852;-83
2023/06/03 06:52:39;;;;;;;;;16.50;16.50;;;;;;;;5048938;28;8858;-83
2023/06/03 06:55:14;;;;;;;;;20.50;15.75;;;;;;;;5038437;28;8982;-84
2023/06/03 06:57:42;;;;;;;;;16.50;14.50;;;;;;;;5048990;28;8913;-83
2023/06/03 07:00:10;;;;;;;;;19.25;17.75;;;;;;;;5047381;28;8874;-82
2023/06/03 07:02:40;;;;;;;;;18.25;16.50;;;;;;;;5047851;28;8871;-81
2023/06/03 07:05:08;;;;;;;;;16.75;15.50;;;;;;;;5048114;28;8868;-79
2023/06/03 07:07:35;;;;;;;;;15.25;15.25;;;;;;;;5048553;28;8840;-80
2023/06/03 07:10:04;;;;;;;;;15.25;15.25;;;;;;;;5048662;28;8856;-79
2023/06/03 07:12:41;;;;;;;;;18.75;15.50;;;;;;;;5047736;28;8859;-83
2023/06/03 07:15:11;;;;;;;;;13.25;12.00;;;;;;;;5048649;28;8985;-84
2023/06/03 07:17:41;;;;;;;;;17.50;16.75;;;;;;;;5047666;28;9611;-83
2023/06/03 07:20:09;;;;;;;;;13.50;13.25;;;;;;;;5047989;28;8878;-81
2023/06/03 07:22:36;;;;;;;;;16.75;13.25;;;;;;;;5047218;28;8949;-78
2023/06/03 07:25:03;;;;;;;;;11.75;11.75;;;;;;;;5048973;28;9755;-81
2023/06/03 07:27:31;;;;;;;;;13.25;12.75;;;;;;;;5048922;28;8866;-77
2023/06/03 07:30:00;;;;;;;;;13.50;13.00;;;;;;;;5049639;28;8859;-79
2023/06/03 07:32:27;;;;;;;;;15.25;15.25;;;;;;;;5049464;28;9686;-84
2023/06/03 07:34:55;;;;;;;;;14.25;14.25;;;;;;;;5050204;28;8955;-78
2023/06/03 07:37:23;;;;;;;;;12.00;12.00;;;;;;;;5051937;28;8849;-81
2023/06/03 07:39:50;;;;;;;;;13.50;13.50;;;;;;;;5051544;28;9011;-80
2023/06/03 07:42:25;;;;;;;;;14.25;11.50;;;;;;;;5057934;28;8856;-82
2023/06/03 07:44:54;;;;;;;;;12.50;10.75;;;;;;;;5041934;28;8967;-80
2023/06/03 07:47:21;;;;;;;;;12.75;11.00;;;;;;;;5047468;28;8946;-81
2023/06/03 07:49:49;;;;;;;;;13.00;11.50;;;;;;;;5057134;28;8881;-81
2023/06/03 07:52:21;;;;;;;;;15.75;14.75;;;;;;;;5048591;28;8832;-81
2023/06/03 07:54:49;;;;;;;;;13.50;11.00;;;;;;;;5058582;28;9654;-80
2023/06/03 07:57:17;;;;;;;;;15.50;11.25;;;;;;;;5051295;28;8935;-82
2023/06/03 07:59:49;;;;;;;;;14.75;13.25;;;;;;;;5051800;28;8886;-79
2023/06/03 08:02:17;;;;;;;;;11.50;9.75;;;;;;;;5050607;28;8780;-81
2023/06/03 08:04:45;;;;;;;;;14.25;11.75;;;;;;;;5051207;28;8851;-79
2023/06/03 08:07:12;;;;;;;;;10.75;10.75;;;;;;;;5051674;28;8860;-82
2023/06/03 08:09:42;;;;;;;;;11.00;10.00;;;;;;;;5050836;28;8899;-82
2023/06/03 08:12:10;;;;;;;;;12.25;12.25;;;;;;;;5051136;28;9677;-80
2023/06/03 08:14:39;;;;;;;;;10.50;9.50;;;;;;;;5050917;28;8866;-80
2023/06/03 08:17:10;;;;;;;;;10.75;10.00;;;;;;;;5051935;28;8844;-83
2023/06/03 08:19:37;;;;;;;;;13.00;12.00;;;;;;;;5051918;28;8955;-78
2023/06/03 08:22:12;;;;;;;;;7.50;7.50;;;;;;;;5051623;28;9277;-77
2023/06/03 08:24:41;;;;;;;;;10.00;10.00;;;;;;;;5045906;28;8856;-79
2023/06/03 08:27:08;;;;;;;;;13.75;10.00;;;;;;;;5050673;28;8852;-79
2023/06/03 08:29:35;;;;;;;;;7.25;6.75;;;;;;;;5050805;28;8917;-78
2023/06/03 08:32:03;;;;;;;;;13.00;11.00;;;;;;;;5050242;28;8796;-79
2023/06/03 08:34:30;;;;;;;;;8.75;8.50;;;;;;;;5050792;28;8888;-82
2023/06/03 08:36:57;;;;;;;;;11.75;10.00;;;;;;;;5051848;28;8882;-81
2023/06/03 08:39:25;;;;;;;;;9.60;9.60;;;;;;;;5052453;28;8871;-78
2023/06/03 08:41:55;;;;;;;;;10.80;10.80;;;;;;;;5051207;28;8844;-82
2023/06/03 08:44:27;;;;;;;;;10.40;10.20;;;;;;;;5052804;28;8900;-76
2023/06/03 08:47:06;;;;;;;;;10.60;9.40;;;;;;;;5051633;28;8995;-81
2023/06/03 08:49:42;;;;;;;;;11.60;10.80;;;;;;;;5051354;28;8879;-81
2023/06/03 08:52:10;;;;;;;;;11.80;11.80;;;;;;;;5050168;28;8840;-79
2023/06/03 08:54:39;;;;;;;;;11.00;11.00;;;;;;;;5057612;28;8926;-81
2023/06/03 08:57:11;;;;;;;;;11.00;11.00;;;;;;;;5056250;28;8844;-81
2023/06/03 08:59:39;;;;;;;;;8.60;8.60;;;;;;;;5051524;28;8973;-84
2023/06/03 09:02:07;;;;;;;;;8.00;7.80;;;;;;;;5058100;28;8804;-81
2023/06/03 09:04:35;;;;;;;;;8.40;8.40;;;;;;;;5051942;28;8872;-80
2023/06/03 09:07:03;;;;;;;;;8.80;8.80;;;;;;;;5068103;28;8872;-80
2023/06/03 09:09:31;;;;;;;;;10.80;10.20;;;;;;;;5067547;28;8887;-82
2023/06/03 09:11:59;;;;;;;;;10.80;10.80;;;;;;;;5070620;28;8826;-81
2023/06/03 09:14:28;;;;;;;;;7.40;7.40;;;;;;;;5066758;28;8844;-81
2023/06/03 09:16:55;;;;;;;;;12.00;11.00;;;;;;;;5061870;28;9015;-88
2023/06/03 09:19:23;;;;;;;;;10.20;10.20;;;;;;;;5056688;28;8859;-79
2023/06/03 09:21:51;;;;;;;;;9.80;9.00;;;;;;;;5057926;28;8880;-82
2023/06/03 09:24:18;;;;;;;;;11.80;10.00;;;;;;;;5053601;28;8856;-83
2023/06/03 09:26:45;;;;;;;;;9.20;8.00;;;;;;;;5056668;28;8961;-78
2023/06/03 09:29:13;;;;;;;;;13.20;11.00;;;;;;;;5063080;28;8856;-84
2023/06/03 09:31:42;;;;;;;;;6.80;6.80;;;;;;;;5049872;28;8815;-85
2023/06/03 09:34:09;;;;;;;;;9.00;9.00;;;;;;;;5059448;28;8860;-79
2023/06/03 09:36:44;;;;;;;;;9.00;9.00;;;;;;;;5064448;28;8858;-79
2023/06/03 09:39:16;;;;;;;;;8.80;8.80;;;;;;;;5051525;28;8824;-79
2023/06/03 09:41:44;;;;;;;;;8.60;7.80;;;;;;;;5049624;28;8963;-77
2023/06/03 09:44:11;;;;;;;;;7.00;7.00;;;;;;;;5049761;28;8966;-78
2023/06/03 10:11:46;;;;;;;;;8.20;7.00;;;;;;;;5123205;27;13489;-80
2023/06/03 10:14:15;;;;;;;;;8.80;7.60;;;;;;;;5127265;27;8837;-77
2023/06/03 10:16:43;;;;;;;;;4.40;4.40;;;;;;;;5127687;27;8869;-78
2023/06/03 10:19:22;;;;;;;;;7.00;6.40;;;;;;;;5126519;27;8868;-80
2023/06/03 10:21:50;;;;;;;;;7.80;5.80;;;;;;;;5126688;27;8857;-82
2023/06/03 10:24:18;;;;;;;;;7.20;7.20;;;;;;;;5126776;27;8861;-77
2023/06/03 10:26:47;;;;;;;;;5.00;5.00;;;;;;;;5126429;27;8850;-77
2023/06/03 10:29:16;;;;;;;;;5.60;5.60;;;;;;;;5125852;27;8838;-79
2023/06/03 10:31:44;;;;;;;;;5.00;5.00;;;;;;;;5096503;28;8814;-79
2023/06/03 10:34:14;;;;;;;;;5.20;5.20;;;;;;;;5084842;28;8855;-80
2023/06/03 10:36:42;;;;;;;;;6.80;5.20;;;;;;;;5084335;28;8958;-79
2023/06/03 10:39:12;;;;;;;;;7.60;7.00;;;;;;;;5085222;28;8908;-82
2023/06/03 10:41:40;;;;;;;;;5.80;5.80;;;;;;;;5084508;28;8862;-78
2023/06/03 10:44:08;;;;;;;;;5.80;5.00;;;;;;;;5086070;28;9256;-81
2023/06/03 10:46:37;;;;;;;;;6.20;6.20;;;;;;;;5084139;28;8952;-79
2023/06/03 10:49:06;;;;;;;;;4.80;3.80;;;;;;;;5086961;28;8846;-80
2023/06/03 10:51:46;;;;;;;;;5.40;5.40;;;;;;;;5073503;28;8837;-79
2023/06/03 10:54:26;;;;;;;;;7.20;5.40;;;;;;;;5088118;28;8851;-82
2023/06/03 10:56:59;;;;;;;;;4.00;4.00;;;;;;;;5086787;28;8843;-80
2023/06/03 10:59:30;;;;;;;;;8.00;6.00;;;;;;;;5083943;28;9648;-79
2023/06/03 11:01:58;;;;;;;;;5.20;4.40;;;;;;;;5072667;28;8799;-80
2023/06/03 11:04:27;;;;;;;;;6.00;6.00;;;;;;;;5081787;28;8842;-79
2023/06/03 11:06:54;;;;;;;;;7.00;5.20;;;;;;;;5077140;28;8869;-79
2023/06/03 11:09:32;;;;;;;;;4.00;4.00;;;;;;;;5077646;28;8857;-79
2023/06/03 11:12:05;;;;;;;;;5.00;5.00;;;;;;;;5083777;28;8989;-79
2023/06/03 11:14:56;;;;;;;;;2.40;2.00;;;;;;;;5083475;28;8871;-81
2023/06/03 11:17:24;;;;;;;;;5.00;5.00;;;;;;;;5083367;28;9653;-82
2023/06/03 11:19:54;;;;;;;;;4.00;4.00;;;;;;;;5083744;28;8870;-82
2023/06/03 11:22:41;;;;;;;;;4.40;4.40;;;;;;;;5074652;28;8887;-79
2023/06/03 11:25:09;;;;;;;;;6.00;4.60;;;;;;;;5070237;28;9009;-81
2023/06/03 11:27:37;;;;;;;;;5.40;5.40;;;;;;;;5069931;28;8862;-81
2023/06/03 11:30:07;;;;;;;;;4.20;4.20;;;;;;;;5069382;28;8862;-80
2023/06/03 11:32:36;;;;;;;;;6.00;6.00;;;;;;;;5064372;28;8865;-80
2023/06/03 11:35:29;;;;;;;;;7.60;6.60;;;;;;;;5069352;28;8865;-80
2023/06/03 11:37:59;;;;;;;;;8.00;8.00;;;;;;;;5062877;28;8871;-80
2023/06/03 11:40:26;;;;;;;;;18.40;15.80;;;;;;;;5065347;28;8838;-79
2023/06/03 11:43:06;;;;;;;;;9.00;9.00;;;;;;;;5069832;28;8854;-80
2023/06/03 11:45:37;;;;;;;;;3.40;3.40;;;;;;;;5064999;28;8855;-81
2023/06/03 11:48:07;;;;;;;;;3.00;3.00;;;;;;;;5063302;28;8835;-80
2023/06/03 11:50:46;;;;;;;;;5.40;5.40;;;;;;;;5062531;28;8934;-80
2023/06/03 11:53:31;;;;;;;;;5.80;5.80;;;;;;;;5066024;28;9665;-79
2023/06/03 11:56:05;;;;;;;;;10.80;9.40;;;;;;;;5068942;28;8854;-81
2023/06/03 11:58:33;;;;;;;;;5.40;5.40;;;;;;;;5069679;28;9597;-82
2023/06/03 12:01:16;;;;;;;;;6.80;6.80;;;;;;;;5068957;28;8909;-79
2023/06/03 12:03:57;;;;;;;;;8.00;6.60;;;;;;;;5060760;28;8855;-79
2023/06/03 12:06:24;;;;;;;;;4.40;4.40;;;;;;;;5069902;28;8986;-80
2023/06/03 12:08:51;;;;;;;;;8.40;6.60;;;;;;;;5069817;28;9013;-80
2023/06/03 12:11:29;;;;;;;;;7.20;6.00;;;;;;;;5069808;28;8843;-81
2023/06/03 12:13:56;;;;;;;;;3.00;3.00;;;;;;;;5069183;28;8871;-81
2023/06/03 12:16:29;;;;;;;;;5.40;4.00;;;;;;;;5069990;28;8888;-81
2023/06/03 12:18:57;;;;;;;;;5.60;5.60;;;;;;;;5070200;28;8855;-82
2023/06/03 12:21:24;;;;;;;;;3.60;3.60;;;;;;;;5069744;28;8870;-81
2023/06/03 12:23:52;;;;;;;;;4.00;4.00;;;;;;;;5069215;28;8989;-81
2023/06/03 12:26:19;;;;;;;;;3.00;3.00;;;;;;;;5069993;28;8855;-82
2023/06/03 12:28:47;;;;;;;;;5.20;5.20;;;;;;;;5069639;28;8866;-81
2023/06/03 12:31:15;;;;;;;;;4.20;2.80;;;;;;;;5069811;28;8827;-82
2023/06/03 12:33:45;;;;;;;;;5.00;3.00;;;;;;;;5069398;28;8866;-81
2023/06/03 12:36:13;;;;;;;;;4.40;4.40;;;;;;;;5070796;28;8977;-82
2023/06/03 12:38:56;;;;;;;;;6.20;5.00;;;;;;;;5070490;28;9006;-82
2023/06/03 12:41:24;;;;;;;;;7.20;5.40;;;;;;;;5060194;28;8865;-80
2023/06/03 12:44:02;;;;;;;;;4.80;4.80;;;;;;;;5068627;28;8849;-81
2023/06/03 12:46:30;;;;;;;;;5.20;4.00;;;;;;;;5060282;28;8849;-81
2023/06/03 12:49:13;;;;;;;;;5.40;5.40;;;;;;;;5068730;28;8976;-80
2023/06/03 12:51:40;;;;;;;;;4.40;4.00;;;;;;;;5054898;28;8979;-81
2023/06/03 12:54:07;;;;;;;;;3.00;3.00;;;;;;;;5068651;28;8858;-81
2023/06/03 12:56:35;;;;;;;;;4.40;4.40;;;;;;;;5068230;28;8838;-81
2023/06/03 12:59:03;;;;;;;;;5.00;5.00;;;;;;;;5068713;28;8878;-80
2023/06/03 13:01:30;;;;;;;;;5.60;4.40;;;;;;;;5065489;28;8801;-81
2023/06/03 13:04:00;;;;;;;;;3.80;3.80;;;;;;;;5068658;28;8985;-81
2023/06/03 13:06:27;;;;;;;;;3.00;3.00;;;;;;;;5065531;28;9746;-81
2023/06/03 13:08:54;;;;;;;;;3.20;3.20;;;;;;;;5061344;28;9647;-83
2023/06/03 13:11:22;;;;;;;;;5.00;5.00;;;;;;;;5061054;28;9151;-79
2023/06/03 13:13:50;;;;;;;;;4.00;4.00;;;;;;;;5052062;28;8854;-79
2023/06/03 13:16:17;;;;;;;;;4.00;4.00;;;;;;;;5062552;28;8877;-81
2023/06/03 13:18:44;;;;;;;;;5.00;5.00;;;;;;;;5052982;28;8854;-80
2023/06/03 13:21:13;;;;;;;;;4.60;4.60;;;;;;;;5065923;28;9660;-78
2023/06/03 13:23:40;;;;;;;;;4.00;4.00;;;;;;;;5068602;28;8843;-79
2023/06/03 13:26:07;;;;;;;;;3.60;3.60;;;;;;;;5062708;28;8847;-80
2023/06/03 13:28:37;;;;;;;;;3.00;3.00;;;;;;;;5061637;28;9633;-79
2023/06/03 13:31:04;;;;;;;;;4.60;4.60;;;;;;;;5057405;28;8811;-79
2023/06/03 13:33:32;;;;;;;;;3.40;3.40;;;;;;;;5068593;28;8870;-79
2023/06/03 13:35:59;;;;;;;;;3.80;3.80;;;;;;;;5070134;28;8965;-80
2023/06/03 13:38:28;;;;;;;;;4.80;3.60;;;;;;;;5069461;28;8990;-80
2023/06/03 13:40:55;;;;;;;;;5.00;5.00;;;;;;;;5067104;28;8965;-81
2023/06/03 13:43:22;;;;;;;;;3.60;3.00;;;;;;;;5067584;28;9048;-79
2023/06/03 13:45:49;;;;;;;;;4.00;4.00;;;;;;;;5068046;28;8850;-78
2023/06/03 13:48:17;;;;;;;;;4.80;3.40;;;;;;;;5055504;28;8853;-81
2023/06/03 13:50:44;;;;;;;;;4.00;4.00;;;;;;;;5060717;28;8960;-80
2023/06/03 13:53:11;;;;;;;;;4.20;4.20;;;;;;;;5063058;28;8985;-80
2023/06/03 13:55:40;;;;;;;;;4.60;4.60;;;;;;;;5061209;28;8878;-80
2023/06/03 13:58:08;;;;;;;;;3.40;3.40;;;;;;;;5066907;28;8855;-80
2023/06/03 14:00:35;;;;;;;;;3.00;3.00;;;;;;;;5052617;28;9556;-80
2023/06/03 14:03:04;;;;;;;;;3.20;3.20;;;;;;;;5061345;28;8842;-81
2023/06/03 14:05:31;;;;;;;;;2.60;2.60;;;;;;;;5065578;28;8857;-81
2023/06/03 14:07:58;;;;;;;;;4.60;4.60;;;;;;;;5058646;28;8957;-81
2023/06/03 14:10:26;;;;;;;;;3.00;3.00;;;;;;;;5068429;28;8882;-81
2023/06/03 14:12:54;;;;;;;;;5.80;4.20;;;;;;;;5068631;28;8855;-80
2023/06/03 14:15:22;;;;;;;;;5.80;3.80;;;;;;;;5070176;28;8863;-82
2023/06/03 14:17:49;;;;;;;;;4.00;4.00;;;;;;;;5053151;28;9008;-83
2023/06/03 14:20:17;;;;;;;;;4.60;4.00;;;;;;;;5061443;28;8988;-82
2023/06/03 14:22:44;;;;;;;;;6.20;3.80;;;;;;;;5051555;28;8845;-80
2023/06/03 14:25:11;;;;;;;;;3.00;3.00;;;;;;;;5060885;28;8867;-81
2023/06/03 14:27:38;;;;;;;;;3.00;3.00;;;;;;;;5049180;28;8952;-79
2023/06/03 14:30:08;;;;;;;;;3.40;3.40;;;;;;;;5054482;28;8871;-79
2023/06/03 14:32:35;;;;;;;;;6.00;4.40;;;;;;;;5066635;28;8873;-81
2023/06/03 14:35:07;;;;;;;;;4.20;4.20;;;;;;;;5067700;28;8961;-80
2023/06/03 14:37:34;;;;;;;;;5.00;3.60;;;;;;;;5067318;28;8875;-80
2023/06/03 14:40:02;;;;;;;;;3.00;2.80;;;;;;;;5052401;28;8869;-80
2023/06/03 14:42:30;;;;;;;;;3.60;3.60;;;;;;;;5057826;28;8992;-81
2023/06/03 14:44:57;;;;;;;;;3.00;3.00;;;;;;;;5063173;28;8996;-82
2023/06/03 14:47:26;;;;;;;;;4.40;4.40;;;;;;;;5067544;28;9029;-83
2023/06/03 14:49:54;;;;;;;;;3.60;3.60;;;;;;;;5065167;28;8874;-80
2023/06/03 14:52:22;;;;;;;;;3.60;3.60;;;;;;;;5058728;28;8854;-84
2023/06/03 14:54:49;;;;;;;;;4.00;4.00;;;;;;;;5058295;28;8843;-86
2023/06/03 14:57:16;;;;;;;;;5.00;3.60;;;;;;;;5072071;28;8912;-80
2023/06/03 14:59:43;;;;;;;;;5.00;3.00;;;;;;;;5067617;28;8869;-80
2023/06/03 15:02:11;;;;;;;;;2.60;2.20;;;;;;;;5061100;28;8795;-79
2023/06/03 15:04:39;;;;;;;;;4.00;4.00;;;;;;;;5069074;28;8853;-82
2023/06/03 15:07:07;;;;;;;;;4.20;3.00;;;;;;;;5067118;28;9005;-87
2023/06/03 15:09:34;;;;;;;;;4.80;4.80;;;;;;;;5065659;28;8863;-80
2023/06/03 15:12:01;;;;;;;;;2.00;2.00;;;;;;;;5071908;28;8844;-81
2023/06/03 15:14:29;;;;;;;;;3.00;3.00;;;;;;;;5060545;28;8883;-86